Time;durP1;ratioP1;P1;durP2;ratioP2;P2;SDS_P1;SDS_P2;PMS_P1;PMS_P2;Temp;Humidity;BMP_temperature;BMP_pressure;BME280_temperature;BME280_humidity;BME280_pressure;Samples;Min_cycle;Max_cycle;Signal;HPM_P1;HPM_P2
2021/10/11 00:00:45;;;;;;;;;;;;;;;12.29;100.00;102527.88;5071313;28;19924;-50
2021/10/11 00:03:11;;;;;;;;;;;;;;;12.27;100.00;102540.31;5068405;28;20027;-51
2021/10/11 00:05:38;;;;;;;;;;;;;;;12.24;100.00;102535.13;5071830;28;19925;-50
2021/10/11 00:08:05;;;;;;;;;;;;;;;12.23;100.00;102532.56;5071211;28;19924;-47
2021/10/11 00:10:32;;;;;;;;;;;;;;;12.23;100.00;102533.44;5072833;28;19931;-52
2021/10/11 00:12:58;;;;;;;;;;;;;;;12.23;100.00;102537.84;5104864;28;19924;-47
2021/10/11 00:15:27;;;;;;;;;;;;;;;12.25;100.00;102536.03;5072621;28;19928;-50
2021/10/11 00:17:55;;;;;;;;;;;;;;;12.28;100.00;102533.22;5071076;28;20347;-58
2021/10/11 00:20:22;;;;;;;;;;;;;;;12.31;100.00;102531.31;5070278;28;19990;-59
2021/10/11 00:22:48;;;;;;;;;;;;;;;12.31;100.00;102536.59;5069306;28;20818;-56
2021/10/11 00:25:15;;;;;;;;;;;;;;;12.28;100.00;102539.34;5072200;28;20027;-56
2021/10/11 00:27:42;;;;;;;;;;;;;;;12.27;100.00;102535.03;5072249;28;19974;-57
2021/10/11 00:30:09;;;;;;;;;;;;;;;12.28;100.00;102541.16;5072609;28;20333;-51
2021/10/11 00:32:36;;;;;;;;;;;;;;;12.30;100.00;102549.88;5070509;28;19962;-47
2021/10/11 00:35:03;;;;;;;;;;;;;;;12.30;100.00;102548.06;5101664;28;19924;-49
2021/10/11 00:37:30;;;;;;;;;;;;;;;12.27;100.00;102542.06;5071393;28;19924;-53
2021/10/11 00:39:57;;;;;;;;;;;;;;;12.23;100.00;102546.63;5071833;28;19929;-47
2021/10/11 00:42:23;;;;;;;;;;;;;;;12.25;100.00;102546.56;5072112;28;19928;-48
2021/10/11 00:44:50;;;;;;;;;;;;;;;12.23;100.00;102545.75;5071896;28;19925;-49
2021/10/11 00:47:17;;;;;;;;;;;;;;;12.22;100.00;102544.06;5072935;28;20437;-46
2021/10/11 00:49:43;;;;;;;;;;;;;;;12.14;100.00;102549.69;5075714;28;20261;-49
2021/10/11 00:52:10;;;;;;;;;;;;;;;12.14;100.00;102555.81;5075541;28;19925;-48
2021/10/11 00:54:36;;;;;;;;;;;;;;;12.14;100.00;102552.31;5075723;28;19928;-47
2021/10/11 00:57:03;;;;;;;;;;;;;;;12.08;100.00;102550.81;5075601;28;19928;-45
2021/10/11 00:59:30;;;;;;;;;;;;;;;12.00;100.00;102547.66;5071893;28;19935;-50
2021/10/11 01:01:56;;;;;;;;;;;;;;;11.97;100.00;102548.66;5072062;28;19924;-50
2021/10/11 01:04:23;;;;;;;;;;;;;;;11.97;100.00;102553.94;5074886;28;19928;-49
2021/10/11 01:06:50;;;;;;;;;;;;;;;11.93;100.00;102547.03;5073924;28;19924;-47
2021/10/11 01:09:16;;;;;;;;;;;;;;;11.93;100.00;102543.53;5074133;28;20002;-49
2021/10/11 01:11:47;;;;;;;;;;;;;;;11.98;100.00;102550.38;5071933;28;20019;-49
2021/10/11 01:14:14;;;;;;;;;;;;;;;12.07;100.00;102537.72;5089312;28;19931;-49
2021/10/11 01:16:41;;;;;;;;;;;;;;;12.01;100.00;102536.16;5073769;28;19986;-47
2021/10/11 01:19:07;;;;;;;;;;;;;;;11.97;100.00;102531.97;5074192;28;20410;-47
2021/10/11 01:21:34;;;;;;;;;;;;;;;11.95;100.00;102521.47;5070340;28;19982;-46
2021/10/11 01:24:01;;;;;;;;;;;;;;;11.95;100.00;102529.41;5073235;28;19925;-50
2021/10/11 01:26:38;;;;;;;;;;;;;;;11.90;100.00;102525.22;5074982;28;19932;-47
2021/10/11 01:29:05;;;;;;;;;;;;;;;11.93;100.00;102525.97;5104879;28;19924;-57
2021/10/11 01:31:31;;;;;;;;;;;;;;;11.88;100.00;102527.09;5072006;28;19924;-57
2021/10/11 01:33:58;;;;;;;;;;;;;;;11.93;100.00;102525.97;5074673;28;19932;-57
2021/10/11 01:36:25;;;;;;;;;;;;;;;11.77;100.00;102525.75;5107280;28;19947;-57
2021/10/11 01:38:52;;;;;;;;;;;;;;;11.76;100.00;102528.47;5074688;28;19928;-57
2021/10/11 01:41:19;;;;;;;;;;;;;;;11.67;100.00;102530.56;5072562;28;19947;-57
2021/10/11 01:43:46;;;;;;;;;;;;;;;11.67;100.00;102529.75;5070247;28;19971;-57
2021/10/11 01:46:12;;;;;;;;;;;;;;;11.65;100.00;102521.88;5074419;28;19963;-50
2021/10/11 01:48:40;;;;;;;;;;;;;;;11.65;100.00;102527.13;5074176;28;20023;-52
2021/10/11 01:51:06;;;;;;;;;;;;;;;11.67;100.00;102520.03;5070838;28;20015;-50
2021/10/11 01:53:33;;;;;;;;;;;;;;;11.62;100.00;102522.00;5072801;28;19970;-50
2021/10/11 01:55:59;;;;;;;;;;;;;;;11.56;100.00;102526.69;5074548;28;19925;-51
2021/10/11 01:58:28;;;;;;;;;;;;;;;11.53;100.00;102516.28;5074197;28;19951;-51
2021/10/11 02:00:55;;;;;;;;;;;;;;;11.56;100.00;102522.28;5103901;28;20409;-53
2021/10/11 02:03:21;;;;;;;;;;;;;;;11.50;100.00;102523.38;5072403;28;19933;-58
2021/10/11 02:05:48;;;;;;;;;;;;;;;11.54;100.00;102518.00;5072900;28;19925;-58
2021/10/11 02:08:15;;;;;;;;;;;;;;;11.54;100.00;102526.75;5103475;28;20402;-58
2021/10/11 02:10:41;;;;;;;;;;;;;;;11.50;100.00;102523.38;5073405;28;19925;-58
2021/10/11 02:13:08;;;;;;;;;;;;;;;11.45;100.00;102525.38;5070483;28;19924;-52
2021/10/11 02:15:35;;;;;;;;;;;;;;;11.35;100.00;102531.09;5086820;28;19924;-49
2021/10/11 02:18:01;;;;;;;;;;;;;;;11.36;100.00;102541.56;5073736;28;19924;-51
2021/10/11 02:20:28;;;;;;;;;;;;;;;11.27;100.00;102534.88;5089210;28;20392;-47
2021/10/11 02:22:54;;;;;;;;;;;;;;;11.28;100.00;102536.59;5106094;28;20371;-57
2021/10/11 02:25:21;;;;;;;;;;;;;;;11.27;100.00;102540.16;5070006;28;20436;-58
2021/10/11 02:27:47;;;;;;;;;;;;;;;11.23;100.00;102535.06;5070067;28;19932;-51
2021/10/11 02:30:14;;;;;;;;;;;;;;;11.16;100.00;102535.31;5073564;28;19978;-47
2021/10/11 02:32:41;;;;;;;;;;;;;;;11.20;100.00;102536.06;5073800;28;20019;-49
2021/10/11 02:35:08;;;;;;;;;;;;;;;11.18;100.00;102537.91;5106084;28;19932;-58
2021/10/11 02:37:36;;;;;;;;;;;;;;;11.09;100.00;102538.28;5073549;28;19928;-58
2021/10/11 02:40:03;;;;;;;;;;;;;;;11.08;100.00;102531.28;5073515;28;19947;-58
2021/10/11 02:42:30;;;;;;;;;;;;;;;11.07;100.00;102545.38;5073687;28;19970;-58
2021/10/11 02:44:56;;;;;;;;;;;;;;;11.05;100.00;102547.22;5073304;28;19931;-59
2021/10/11 02:47:23;;;;;;;;;;;;;;;11.02;100.00;102547.34;5072251;28;19925;-57
2021/10/11 02:49:50;;;;;;;;;;;;;;;11.03;100.00;102549.03;5071214;28;19924;-57
2021/10/11 02:52:16;;;;;;;;;;;;;;;10.97;100.00;102550.16;5072449;28;19931;-57
2021/10/11 02:54:43;;;;;;;;;;;;;;;10.93;100.00;102553.81;5073307;28;19931;-58
2021/10/11 02:57:10;;;;;;;;;;;;;;;10.90;100.00;102554.78;5073270;28;20019;-58
2021/10/11 02:59:36;;;;;;;;;;;;;;;10.86;100.00;102550.56;5073344;28;19931;-58
2021/10/11 03:02:03;;;;;;;;;;;;;;;10.86;100.00;102539.19;5073117;28;19928;-58
2021/10/11 03:04:30;;;;;;;;;;;;;;;10.82;100.00;102536.69;5072738;28;20444;-57
2021/10/11 03:06:56;;;;;;;;;;;;;;;10.77;100.00;102536.00;5072890;28;20585;-56
2021/10/11 03:09:23;;;;;;;;;;;;;;;10.80;100.00;102535.88;5069270;28;20012;-56
2021/10/11 03:11:49;;;;;;;;;;;;;;;10.74;100.00;102533.47;5068007;28;19932;-57
2021/10/11 03:14:16;;;;;;;;;;;;;;;10.78;100.00;102528.97;5071911;28;20034;-48
2021/10/11 03:16:43;;;;;;;;;;;;;;;10.74;100.00;102535.25;5070383;28;19978;-57
2021/10/11 03:19:09;;;;;;;;;;;;;;;10.72;100.00;102529.22;5071195;28;20364;-57
2021/10/11 03:21:36;;;;;;;;;;;;;;;10.62;100.00;102519.03;5073076;28;19924;-58
2021/10/11 03:24:02;;;;;;;;;;;;;;;10.61;100.00;102522.59;5070160;28;19930;-58
2021/10/11 03:26:29;;;;;;;;;;;;;;;10.58;100.00;102511.31;5069634;28;20011;-57
2021/10/11 03:28:56;;;;;;;;;;;;;;;10.61;100.00;102501.53;5105310;28;19924;-57
2021/10/11 03:31:22;;;;;;;;;;;;;;;10.56;100.00;102495.59;5071798;28;20291;-57
2021/10/11 03:33:49;;;;;;;;;;;;;;;10.48;100.00;102495.03;5072690;28;19924;-57
2021/10/11 03:36:15;;;;;;;;;;;;;;;10.43;100.00;102502.22;5073032;28;19924;-57
2021/10/11 03:38:42;;;;;;;;;;;;;;;10.41;100.00;102504.09;5072630;28;19967;-58
2021/10/11 03:41:09;;;;;;;;;;;;;;;10.36;100.00;102511.28;5072834;28;19925;-58
2021/10/11 03:43:35;;;;;;;;;;;;;;;10.37;100.00;102498.06;5105271;28;19924;-59
2021/10/11 03:46:02;;;;;;;;;;;;;;;10.36;100.00;102500.75;5070239;28;19964;-58
2021/10/11 03:48:28;;;;;;;;;;;;;;;10.31;100.00;102509.66;5101979;28;19924;-57
2021/10/11 03:50:55;;;;;;;;;;;;;;;10.21;100.00;102512.69;5072135;28;19925;-56
2021/10/11 03:53:22;;;;;;;;;;;;;;;10.20;100.00;102522.34;5072837;28;20558;-57
2021/10/11 03:55:49;;;;;;;;;;;;;;;10.17;100.00;102516.34;5072597;28;19924;-57
2021/10/11 03:58:15;;;;;;;;;;;;;;;10.27;100.00;102522.97;5105024;28;19925;-57
2021/10/11 04:00:42;;;;;;;;;;;;;;;10.20;100.00;102526.72;5103942;28;20429;-57
2021/10/11 04:03:09;;;;;;;;;;;;;;;10.18;100.00;102526.78;5070015;28;19925;-50
2021/10/11 04:05:36;;;;;;;;;;;;;;;10.19;100.00;102530.28;5071972;28;20058;-46
2021/10/11 04:08:10;;;;;;;;;;;;;;;10.18;100.00;102531.19;5072492;28;19970;-58
2021/10/11 04:10:44;;;;;;;;;;;;;;;10.02;100.00;102521.25;5103091;28;19924;-58
2021/10/11 04:13:13;;;;;;;;;;;;;;;9.97;100.00;102526.66;5072564;28;19970;-57
2021/10/11 04:15:40;;;;;;;;;;;;;;;10.02;100.00;102528.25;5072421;28;19928;-49
2021/10/11 04:18:06;;;;;;;;;;;;;;;10.01;99.91;102523.91;5070958;28;19928;-48
2021/10/11 04:20:35;;;;;;;;;;;;;;;9.95;99.39;102528.50;5071967;28;19929;-57
2021/10/11 04:23:02;;;;;;;;;;;;;;;9.90;99.26;102538.31;5073655;28;19977;-57
2021/10/11 04:25:28;;;;;;;;;;;;;;;9.86;99.33;102527.94;5076141;28;19925;-57
2021/10/11 04:27:55;;;;;;;;;;;;;;;9.87;99.02;102520.03;5076234;28;19925;-58
2021/10/11 04:30:22;;;;;;;;;;;;;;;9.90;98.09;102527.78;5073653;28;19928;-57
2021/10/11 04:32:48;;;;;;;;;;;;;;;9.83;98.52;102534.19;5073740;28;20367;-58
2021/10/11 04:35:15;;;;;;;;;;;;;;;9.87;98.81;102530.53;5108407;28;19924;-58
2021/10/11 04:37:42;;;;;;;;;;;;;;;9.74;99.40;102532.72;5075929;28;19932;-58
2021/10/11 04:40:09;;;;;;;;;;;;;;;9.62;99.57;102534.00;5108277;28;19931;-57
2021/10/11 04:42:36;;;;;;;;;;;;;;;9.69;99.03;102536.44;5076057;28;19932;-57
2021/10/11 04:45:02;;;;;;;;;;;;;;;9.60;99.65;102535.00;5091651;28;19953;-57
2021/10/11 04:47:29;;;;;;;;;;;;;;;9.55;99.48;102529.88;5075450;28;19970;-50
2021/10/11 04:49:55;;;;;;;;;;;;;;;9.50;99.31;102525.69;5075540;28;20383;-57
2021/10/11 04:52:22;;;;;;;;;;;;;;;9.54;98.63;102522.91;5108121;28;19936;-57
2021/10/11 04:54:49;;;;;;;;;;;;;;;9.50;98.86;102521.28;5074471;28;20329;-57
2021/10/11 04:57:15;;;;;;;;;;;;;;;9.47;98.57;102530.16;5071793;28;19928;-58
2021/10/11 04:59:42;;;;;;;;;;;;;;;9.40;99.22;102540.91;5075010;28;19924;-57
2021/10/11 05:02:09;;;;;;;;;;;;;;;9.34;99.29;102535.84;5075551;28;19986;-56
2021/10/11 05:04:35;;;;;;;;;;;;;;;9.25;100.00;102537.84;5075526;28;19924;-57
2021/10/11 05:07:02;;;;;;;;;;;;;;;9.22;100.00;102539.75;5075203;28;19968;-57
2021/10/11 05:09:28;;;;;;;;;;;;;;;9.25;99.76;102544.88;5074144;28;19974;-48
2021/10/11 05:11:55;;;;;;;;;;;;;;;9.17;100.00;102536.41;5075215;28;19924;-48
2021/10/11 05:14:22;;;;;;;;;;;;;;;9.18;100.00;102533.72;5075189;28;20496;-58
2021/10/11 05:16:48;;;;;;;;;;;;;;;9.14;99.92;102529.47;5075031;28;19933;-58
2021/10/11 05:19:23;;;;;;;;;;;;;;;9.13;99.88;102522.50;5075153;28;19928;-58
2021/10/11 05:21:50;;;;;;;;;;;;;;;9.07;100.00;102527.97;5075018;28;19924;-45
2021/10/11 05:24:17;;;;;;;;;;;;;;;9.10;100.00;102523.47;5075388;28;20379;-51
2021/10/11 05:26:44;;;;;;;;;;;;;;;9.10;99.46;102512.97;5073581;28;19932;-53
2021/10/11 05:29:11;;;;;;;;;;;;;;;9.03;100.00;102511.44;5074451;28;19925;-49
2021/10/11 05:31:38;;;;;;;;;;;;;;;9.02;100.00;102519.38;5072197;28;19932;-48
2021/10/11 05:34:04;;;;;;;;;;;;;;;9.08;100.00;102524.41;5071815;28;20053;-47
2021/10/11 05:36:31;;;;;;;;;;;;;;;8.95;100.00;102522.19;5073571;28;19939;-49
2021/10/11 05:38:58;;;;;;;;;;;;;;;8.95;100.00;102529.22;5074718;28;20011;-57
2021/10/11 05:41:25;;;;;;;;;;;;;;;8.96;99.73;102529.16;5074753;28;19974;-57
2021/10/11 05:43:51;;;;;;;;;;;;;;;8.96;100.00;102531.78;5070460;28;19928;-57
2021/10/11 05:46:18;;;;;;;;;;;;;;;8.91;100.00;102528.44;5104323;28;19932;-57
2021/10/11 05:49:04;;;;;;;;;;;;;;;8.94;100.00;102536.22;5074596;28;19928;-57
2021/10/11 05:51:31;;;;;;;;;;;;;;;8.87;100.00;102539.09;5107213;28;19931;-57
2021/10/11 05:53:57;;;;;;;;;;;;;;;8.82;100.00;102535.75;5074585;28;19950;-58
2021/10/11 05:56:24;;;;;;;;;;;;;;;8.83;100.00;102530.44;5070265;28;19924;-58
2021/10/11 05:58:50;;;;;;;;;;;;;;;8.73;100.00;102523.78;5103454;28;19956;-57
2021/10/11 06:01:20;;;;;;;;;;;;;;;8.72;100.00;102522.06;5074419;28;20396;-57
2021/10/11 06:03:47;;;;;;;;;;;;;;;8.79;100.00;102528.81;5106793;28;19931;-57
2021/10/11 06:06:13;;;;;;;;;;;;;;;8.72;100.00;102533.38;5072107;28;20349;-57
2021/10/11 06:08:40;;;;;;;;;;;;;;;8.74;100.00;102539.47;5070581;28;19925;-57
2021/10/11 06:11:06;;;;;;;;;;;;;;;8.74;100.00;102546.47;5073906;28;19947;-57
2021/10/11 06:13:33;;;;;;;;;;;;;;;8.75;100.00;102546.44;5069482;28;19951;-58
2021/10/11 06:16:00;;;;;;;;;;;;;;;8.79;100.00;102550.69;5072021;28;19924;-58
2021/10/11 06:18:28;;;;;;;;;;;;;;;8.72;100.00;102546.50;5073838;28;20409;-57
2021/10/11 06:20:54;;;;;;;;;;;;;;;8.71;100.00;102547.44;5105630;28;20391;-57
2021/10/11 06:23:21;;;;;;;;;;;;;;;8.70;100.00;102553.56;5105505;28;19924;-57
2021/10/11 06:25:48;;;;;;;;;;;;;;;8.70;100.00;102550.97;5071023;28;19978;-57
2021/10/11 06:28:15;;;;;;;;;;;;;;;8.68;100.00;102559.78;5103325;28;20367;-57
2021/10/11 06:30:45;;;;;;;;;;;;;;;8.73;100.00;102566.59;5072790;28;19924;-57
2021/10/11 06:33:12;;;;;;;;;;;;;;;8.75;100.00;102563.91;5073788;28;20345;-58
2021/10/11 06:35:40;;;;;;;;;;;;;;;8.75;100.00;102563.91;5074137;28;19932;-56
2021/10/11 06:38:07;;;;;;;;;;;;;;;8.78;100.00;102548.09;5105719;28;19974;-49
2021/10/11 06:40:34;;;;;;;;;;;;;;;8.84;100.00;102555.78;5072540;28;19925;-48
2021/10/11 06:43:02;;;;;;;;;;;;;;;8.88;100.00;102552.16;5069354;28;21207;-50
2021/10/11 06:45:29;;;;;;;;;;;;;;;8.95;100.00;102556.28;5102274;28;19925;-48
2021/10/11 06:47:56;;;;;;;;;;;;;;;9.02;100.00;102556.13;5073386;28;19924;-48
2021/10/11 06:50:22;;;;;;;;;;;;;;;9.07;100.00;102556.84;5072228;28;19928;-51
2021/10/11 06:52:49;;;;;;;;;;;;;;;9.10;100.00;102560.22;5072145;28;19929;-49
2021/10/11 06:55:16;;;;;;;;;;;;;;;9.14;100.00;102568.84;5072383;28;20337;-50
2021/10/11 06:57:42;;;;;;;;;;;;;;;9.20;100.00;102565.19;5068608;28;20667;-46
2021/10/11 07:00:09;;;;;;;;;;;;;;;9.22;100.00;102558.13;5071647;28;20122;-50
2021/10/11 07:02:37;;;;;;;;;;;;;;;9.27;100.00;102564.94;5088770;28;19924;-47
2021/10/11 07:05:10;;;;;;;;;;;;;;;9.27;100.00;102567.56;5073011;28;19951;-51
2021/10/11 07:07:39;;;;;;;;;;;;;;;9.33;100.00;102570.91;5103662;28;19925;-50
2021/10/11 07:10:06;;;;;;;;;;;;;;;9.34;100.00;102577.84;5104692;28;19978;-51
2021/10/11 07:12:33;;;;;;;;;;;;;;;9.39;100.00;102566.28;5069434;28;19997;-51
2021/10/11 07:15:17;;;;;;;;;;;;;;;9.44;100.00;102574.88;5100234;28;19925;-57
2021/10/11 07:17:44;;;;;;;;;;;;;;;9.46;100.00;102570.44;5072570;28;20334;-57
2021/10/11 07:20:11;;;;;;;;;;;;;;;9.50;100.00;102573.81;5102659;28;19925;-56
2021/10/11 07:22:37;;;;;;;;;;;;;;;9.53;100.00;102581.63;5071264;28;19965;-57
2021/10/11 07:25:04;;;;;;;;;;;;;;;9.58;100.00;102584.91;5073128;28;20319;-56
2021/10/11 07:27:31;;;;;;;;;;;;;;;9.63;100.00;102597.91;5072854;28;19971;-58
2021/10/11 07:29:57;;;;;;;;;;;;;;;9.64;100.00;102603.13;5069825;28;19974;-56
2021/10/11 07:32:24;;;;;;;;;;;;;;;9.69;100.00;102610.84;5069949;28;19994;-56
2021/10/11 07:34:50;;;;;;;;;;;;;;;9.71;100.00;102603.78;5072786;28;19978;-56
2021/10/11 07:37:17;;;;;;;;;;;;;;;9.77;100.00;102607.97;5072527;28;19978;-57
2021/10/11 07:39:44;;;;;;;;;;;;;;;9.81;100.00;102617.47;5105231;28;19925;-56
2021/10/11 07:42:11;;;;;;;;;;;;;;;9.83;100.00;102610.41;5072892;28;19924;-57
2021/10/11 07:44:37;;;;;;;;;;;;;;;9.91;100.00;102612.75;5072794;28;19973;-56
2021/10/11 07:47:05;;;;;;;;;;;;;;;9.96;100.00;102621.34;5104651;28;19928;-56
2021/10/11 07:49:31;;;;;;;;;;;;;;;10.00;100.00;102608.97;5071105;28;19924;-56
2021/10/11 07:51:58;;;;;;;;;;;;;;;10.08;100.00;102612.19;5070726;28;19925;-45
2021/10/11 07:54:25;;;;;;;;;;;;;;;10.13;100.00;102612.88;5101818;28;19970;-47
2021/10/11 07:56:51;;;;;;;;;;;;;;;10.15;100.00;102618.94;5073282;28;20438;-50
2021/10/11 07:59:18;;;;;;;;;;;;;;;10.19;100.00;102614.44;5109091;28;19924;-49
2021/10/11 08:01:48;;;;;;;;;;;;;;;10.26;100.00;102618.56;5108088;28;19924;-57
2021/10/11 08:04:15;;;;;;;;;;;;;;;10.29;100.00;102621.94;5107844;28;19978;-58
2021/10/11 08:06:42;;;;;;;;;;;;;;;10.43;100.00;102621.47;5074028;28;20300;-58
2021/10/11 08:09:10;;;;;;;;;;;;;;;10.49;100.00;102629.13;5075223;28;19924;-57
2021/10/11 08:11:39;;;;;;;;;;;;;;;10.55;100.00;102628.06;5076521;28;19931;-57
2021/10/11 08:14:05;;;;;;;;;;;;;;;10.62;100.00;102613.75;5076415;28;19928;-56
2021/10/11 08:16:32;;;;;;;;;;;;;;;10.70;100.00;102617.88;5091873;28;20291;-57
2021/10/11 08:18:59;;;;;;;;;;;;;;;10.78;100.00;102608.78;5108799;28;19948;-57
2021/10/11 08:21:26;;;;;;;;;;;;;;;10.78;100.00;102614.06;5076457;28;19960;-57
2021/10/11 08:23:54;;;;;;;;;;;;;;;10.84;100.00;102612.97;5108734;28;19924;-58
2021/10/11 08:26:21;;;;;;;;;;;;;;;10.90;100.00;102623.22;5076154;28;20284;-57
2021/10/11 08:28:48;;;;;;;;;;;;;;;10.98;100.00;102618.53;5091690;28;20285;-57
2021/10/11 08:31:14;;;;;;;;;;;;;;;11.04;100.00;102621.84;5076310;28;19925;-57
2021/10/11 08:33:41;;;;;;;;;;;;;;;11.12;100.00;102630.31;5076150;28;19928;-57
2021/10/11 08:36:10;;;;;;;;;;;;;;;11.20;100.00;102615.06;5076030;28;19929;-58
2021/10/11 08:38:37;;;;;;;;;;;;;;;11.24;100.00;102637.72;5075796;28;19986;-57
2021/10/11 08:41:05;;;;;;;;;;;;;;;11.33;100.00;102640.00;5072840;28;19974;-57
2021/10/11 08:43:31;;;;;;;;;;;;;;;11.46;100.00;102631.59;5072457;28;20031;-57
2021/10/11 08:45:58;;;;;;;;;;;;;;;11.54;98.61;102633.94;5074464;28;20379;-57
2021/10/11 08:48:25;;;;;;;;;;;;;;;11.65;99.41;102631.72;5108149;28;19931;-57
2021/10/11 08:50:51;;;;;;;;;;;;;;;11.81;99.94;102624.03;5106446;28;19941;-57
2021/10/11 08:53:18;;;;;;;;;;;;;;;11.82;99.14;102631.88;5072737;28;19978;-57
2021/10/11 08:55:45;;;;;;;;;;;;;;;11.97;99.63;102637.44;5075697;28;20425;-57
2021/10/11 08:58:11;;;;;;;;;;;;;;;12.06;99.22;102630.91;5107835;28;20434;-57
2021/10/11 09:00:38;;;;;;;;;;;;;;;12.05;97.92;102635.31;5075829;28;19929;-52
2021/10/11 09:03:08;;;;;;;;;;;;;;;12.07;98.18;102637.91;5073640;28;19932;-52
2021/10/11 09:05:40;;;;;;;;;;;;;;;12.13;97.04;102637.63;5073038;28;19932;-53
2021/10/11 09:08:08;;;;;;;;;;;;;;;12.21;97.87;102640.78;5073781;28;19928;-45
2021/10/11 09:10:47;;;;;;;;;;;;;;;12.29;96.63;102628.13;5075152;28;19925;-47
2021/10/11 09:13:14;;;;;;;;;;;;;;;12.41;95.96;102624.09;5107893;28;19925;-51
2021/10/11 09:15:41;;;;;;;;;;;;;;;12.52;96.67;102621.81;5075577;28;20363;-49
2021/10/11 09:18:08;;;;;;;;;;;;;;;12.60;95.75;102621.47;5075220;28;20261;-47
2021/10/11 09:20:39;;;;;;;;;;;;;;;12.69;95.71;102617.56;5075115;28;19930;-47
2021/10/11 09:23:06;;;;;;;;;;;;;;;12.78;95.11;102624.22;5072357;28;20380;-46
2021/10/11 09:25:34;;;;;;;;;;;;;;;12.91;94.68;102625.34;5105168;28;19951;-48
2021/10/11 09:28:02;;;;;;;;;;;;;;;12.99;94.21;102632.91;5073858;28;20403;-46
2021/10/11 09:30:33;;;;;;;;;;;;;;;13.04;94.61;102635.34;5106520;28;19924;-46
2021/10/11 09:33:06;;;;;;;;;;;;;;;13.05;91.65;102626.47;5075222;28;19928;-47
2021/10/11 09:35:34;;;;;;;;;;;;;;;13.09;91.68;102625.41;5104615;28;20373;-47
2021/10/11 09:38:00;;;;;;;;;;;;;;;13.16;92.92;102630.31;5072276;28;20306;-48
2021/10/11 09:40:37;;;;;;;;;;;;;;;13.28;93.01;102628.88;5107139;28;19955;-46
2021/10/11 09:43:14;;;;;;;;;;;;;;;13.37;92.90;102626.75;5074956;28;19931;-50
2021/10/11 09:45:41;;;;;;;;;;;;;;;13.42;93.04;102630.88;5074201;28;19924;-50
2021/10/11 09:48:08;;;;;;;;;;;;;;;13.53;92.65;102635.66;5105948;28;20311;-48
2021/10/11 09:50:35;;;;;;;;;;;;;;;13.60;91.84;102638.84;5087428;28;19925;-51
2021/10/11 09:53:02;;;;;;;;;;;;;;;13.71;92.06;102639.16;5072880;28;19924;-48
2021/10/11 09:55:29;;;;;;;;;;;;;;;13.72;90.34;102634.75;5074454;28;20284;-50
2021/10/11 09:57:56;;;;;;;;;;;;;;;13.73;90.31;102631.16;5074350;28;19931;-50
2021/10/11 10:00:23;;;;;;;;;;;;;;;13.80;91.74;102629.91;5074437;28;19924;-48
2021/10/11 10:02:50;;;;;;;;;;;;;;;13.91;91.95;102632.88;5073293;28;20334;-53
2021/10/11 10:05:18;;;;;;;;;;;;;;;13.88;90.86;102633.03;5072625;28;20383;-50
2021/10/11 10:07:46;;;;;;;;;;;;;;;13.99;90.13;102640.44;5103752;28;19928;-50
2021/10/11 10:10:13;;;;;;;;;;;;;;;13.96;87.57;102635.25;5071708;28;20403;-48
2021/10/11 10:12:44;;;;;;;;;;;;;;;14.10;88.16;102634.59;5106623;28;19990;-47
2021/10/11 10:15:10;;;;;;;;;;;;;;;14.14;88.04;102622.91;5073669;28;20319;-50
2021/10/11 10:17:37;;;;;;;;;;;;;;;14.23;88.34;102622.41;5103965;28;19970;-50
2021/10/11 10:20:05;;;;;;;;;;;;;;;14.32;87.99;102629.84;5072503;28;19977;-46
2021/10/11 10:22:32;;;;;;;;;;;;;;;14.44;88.58;102627.50;5074067;28;19925;-50
2021/10/11 10:25:08;;;;;;;;;;;;;;;14.52;87.46;102627.97;5074286;28;19925;-51
2021/10/11 10:27:39;;;;;;;;;;;;;;;14.52;86.44;102630.63;5073839;28;19928;-48
2021/10/11 10:30:32;;;;;;;;;;;;;;;14.65;87.44;102623.72;5073794;28;20395;-52
2021/10/11 10:33:00;;;;;;;;;;;;;;;14.88;86.59;102616.31;5071768;28;19932;-50
2021/10/11 10:35:28;;;;;;;;;;;;;;;15.04;85.02;102618.97;5106072;28;20393;-50
2021/10/11 10:37:55;;;;;;;;;;;;;;;15.19;84.25;102604.00;5070861;28;19924;-50
2021/10/11 10:40:26;;;;;;;;;;;;;;;15.28;84.24;102603.47;5071593;28;19928;-47
2021/10/11 10:43:03;;;;;;;;;;;;;;;15.38;82.70;102607.31;5071455;28;19970;-48
2021/10/11 10:45:32;;;;;;;;;;;;;;;15.83;81.58;102609.19;5069940;28;20431;-48
2021/10/11 10:47:58;;;;;;;;;;;;;;;15.92;81.12;102613.09;5073135;28;19928;-48
2021/10/11 10:50:28;;;;;;;;;;;;;;;16.08;80.33;102615.69;5073373;28;19924;-48
2021/10/11 10:52:56;;;;;;;;;;;;;;;15.93;78.22;102613.00;5073613;28;19925;-48
2021/10/11 10:55:23;;;;;;;;;;;;;;;16.26;79.54;102608.38;5073492;28;19970;-49
2021/10/11 10:57:54;;;;;;;;;;;;;;;16.50;78.24;102606.84;5106194;28;19928;-52
2021/10/11 11:00:21;;;;;;;;;;;;;;;16.45;76.59;102608.09;5073119;28;19935;-47
2021/10/11 11:02:49;;;;;;;;;;;;;;;16.62;76.67;102615.00;5072894;28;19974;-47
2021/10/11 11:05:17;;;;;;;;;;;;;;;16.82;72.00;102606.59;5085645;28;20528;-49
2021/10/11 11:07:44;;;;;;;;;;;;;;;16.64;72.75;102608.63;5071590;28;20379;-47
2021/10/11 11:10:12;;;;;;;;;;;;;;;16.46;71.08;102593.88;5072917;28;19928;-45
2021/10/11 11:12:40;;;;;;;;;;;;;;;16.95;71.05;102596.09;5073209;28;19924;-46
2021/10/11 11:15:08;;;;;;;;;;;;;;;17.69;69.24;102596.53;5073126;28;20516;-46
2021/10/11 11:17:36;;;;;;;;;;;;;;;17.81;67.40;102594.00;5073068;28;19924;-46
2021/10/11 11:20:03;;;;;;;;;;;;;;;17.99;66.36;102592.75;5072970;28;19928;-47
2021/10/11 11:22:31;;;;;;;;;;;;;;;18.37;67.47;102596.38;5073035;28;19973;-57
2021/10/11 11:25:00;;;;;;;;;;;;;;;18.74;62.85;102586.56;5071730;28;19977;-58
2021/10/11 11:27:28;;;;;;;;;;;;;;;18.89;62.42;102581.97;5072855;28;19925;-58
2021/10/11 11:29:55;;;;;;;;;;;;;;;19.45;62.53;102582.34;5072360;28;19924;-57
2021/10/11 11:32:22;;;;;;;;;;;;;;;20.10;59.94;102570.25;5101656;28;20043;-58
2021/10/11 11:34:49;;;;;;;;;;;;;;;20.05;55.68;102565.25;5071081;28;20391;-58
2021/10/11 11:37:15;;;;;;;;;;;;;;;19.73;59.80;102565.91;5071982;28;20326;-58
2021/10/11 11:39:42;;;;;;;;;;;;;;;19.69;59.05;102575.13;5072914;28;20380;-58
2021/10/11 11:42:09;;;;;;;;;;;;;;;19.73;58.69;102581.09;5071545;28;19978;-57
2021/10/11 11:44:35;;;;;;;;;;;;;;;19.89;55.14;102580.78;5072783;28;19928;-56
2021/10/11 11:47:02;;;;;;;;;;;;;;;20.40;54.47;102569.63;5072729;28;19932;-56
2021/10/11 11:49:29;;;;;;;;;;;;;;;20.19;52.04;102566.84;5072325;28;19932;-56
2021/10/11 11:52:03;;;;;;;;;;;;;;;20.03;54.68;102561.88;5087687;28;19957;-57
2021/10/11 11:54:29;;;;;;;;;;;;;;;19.47;54.57;102559.91;5072165;28;20380;-56
2021/10/11 11:56:57;;;;;;;;;;;;;;;19.37;54.26;102556.25;5072446;28;19970;-57
2021/10/11 11:59:23;;;;;;;;;;;;;;;19.32;56.41;102556.59;5072598;28;19928;-57
2021/10/11 12:01:50;;;;;;;;;;;;;;;19.12;56.48;102562.59;5072799;28;20035;-57
2021/10/11 12:04:17;;;;;;;;;;;;;;;19.13;55.54;102551.81;5071427;28;19925;-57
2021/10/11 12:06:47;;;;;;;;;;;;;;;19.03;57.22;102551.66;5101690;28;19925;-57
2021/10/11 12:09:17;;;;;;;;;;;;;;;18.62;56.31;102552.81;5069920;28;20261;-57
2021/10/11 12:11:44;;;;;;;;;;;;;;;18.21;57.21;102560.16;5072222;28;19925;-57
2021/10/11 12:14:11;;;;;;;;;;;;;;;18.10;57.38;102554.72;5104798;28;20422;-57
2021/10/11 12:16:37;;;;;;;;;;;;;;;18.25;58.67;102555.47;5072661;28;20384;-57
2021/10/11 12:19:05;;;;;;;;;;;;;;;18.16;57.28;102550.78;5072499;28;19924;-57
2021/10/11 12:21:35;;;;;;;;;;;;;;;18.53;58.11;102549.03;5071136;28;19935;-58
2021/10/11 12:24:24;;;;;;;;;;;;;;;18.70;56.83;102555.78;5072650;28;19931;-57
2021/10/11 12:26:54;;;;;;;;;;;;;;;18.17;58.35;102558.66;5070506;28;19928;-57
2021/10/11 12:29:22;;;;;;;;;;;;;;;18.24;58.75;102548.44;5069041;28;19928;-50
2021/10/11 12:31:54;;;;;;;;;;;;;;;18.23;59.90;102547.59;5071262;28;19924;-57
2021/10/11 12:34:25;;;;;;;;;;;;;;;18.03;62.35;102550.81;5072164;28;19935;-57